createdAt,value
2019-03-22T00:01:13.100Z,87.55
2019-03-22T00:03:44.029Z,87.88
2019-03-22T00:06:14.789Z,87.85
2019-03-22T00:08:45.601Z,86.65
2019-03-22T00:11:16.469Z,87.90
2019-03-22T00:13:47.565Z,88.30
2019-03-22T00:16:18.319Z,88.28
2019-03-22T00:18:49.091Z,88.37
2019-03-22T00:21:19.892Z,88.58
2019-03-22T00:23:50.771Z,88.62
2019-03-22T00:26:21.562Z,88.28
2019-03-22T00:28:52.519Z,87.83
2019-03-22T00:31:23.393Z,87.18
2019-03-22T00:33:54.343Z,86.98
2019-03-22T00:36:25.110Z,86.46
2019-03-22T00:38:55.927Z,85.76
2019-03-22T00:41:26.641Z,85.92
2019-03-22T00:43:57.508Z,85.48
2019-03-22T00:46:28.266Z,85.53
2019-03-22T00:48:59.050Z,85.88
2019-03-22T00:51:29.898Z,86.14
2019-03-22T00:54:00.796Z,85.83
2019-03-22T00:56:31.734Z,85.89
2019-03-22T00:59:02.679Z,85.17
2019-03-22T01:01:33.484Z,85.53
2019-03-22T01:04:04.295Z,85.49
2019-03-22T01:06:35.098Z,85.89
2019-03-22T01:09:07.191Z,85.74
2019-03-22T01:11:38.023Z,87.18
2019-03-22T01:14:08.864Z,87.27
2019-03-22T01:16:39.658Z,88.17
2019-03-22T01:19:10.437Z,88.40
2019-03-22T01:21:41.199Z,88.15
2019-03-22T01:24:12.070Z,87.68
2019-03-22T01:26:43.942Z,87.18
2019-03-22T01:29:14.748Z,89.17
2019-03-22T01:31:45.484Z,89.25
2019-03-22T01:34:16.369Z,89.19
2019-03-22T01:36:47.126Z,88.88
2019-03-22T01:39:18.126Z,89.13
2019-03-22T01:41:48.866Z,89.51
2019-03-22T01:44:19.847Z,88.57
2019-03-22T01:46:50.654Z,88.40
2019-03-22T01:49:21.406Z,88.67
2019-03-22T01:51:52.146Z,88.44
2019-03-22T01:54:23.036Z,89.06
2019-03-22T01:56:54.318Z,88.84
2019-03-22T01:59:25.138Z,88.44
2019-03-22T02:01:55.956Z,87.84
2019-03-22T02:04:26.878Z,88.06
2019-03-22T02:06:57.656Z,86.98
2019-03-22T02:09:28.518Z,85.92
2019-03-22T02:11:59.298Z,86.33
2019-03-22T02:14:30.168Z,85.30
2019-03-22T02:17:00.936Z,85.17
2019-03-22T02:19:31.779Z,85.40
2019-03-22T02:22:02.586Z,85.36
2019-03-22T02:24:33.448Z,85.48
2019-03-22T02:27:04.359Z,85.36
2019-03-22T02:29:35.167Z,85.12
2019-03-22T02:32:05.984Z,85.02
2019-03-22T02:34:36.844Z,85.42
2019-03-22T02:37:07.609Z,85.67
2019-03-22T02:39:38.510Z,85.45
2019-03-22T02:42:09.320Z,84.73
2019-03-22T02:44:40.392Z,85.20
2019-03-22T02:47:12.249Z,86.58
2019-03-22T02:49:43.044Z,87.24
2019-03-22T02:52:13.795Z,87.08
2019-03-22T02:54:44.645Z,87.08
2019-03-22T02:57:15.818Z,87.98
2019-03-22T02:59:47.721Z,87.68
2019-03-22T03:02:18.473Z,88.73
2019-03-22T03:04:49.329Z,88.93
2019-03-22T03:07:20.081Z,88.97
2019-03-22T03:09:50.893Z,89.56
2019-03-22T03:12:21.630Z,89.06
2019-03-22T03:14:52.520Z,88.40
2019-03-22T03:17:23.293Z,88.08
2019-03-22T03:19:54.050Z,87.83
2019-03-22T03:22:24.849Z,87.34
2019-03-22T03:24:55.743Z,86.68
2019-03-22T03:27:26.562Z,86.91
2019-03-22T03:29:57.535Z,87.28
2019-03-22T03:32:28.383Z,87.17
2019-03-22T03:34:59.199Z,87.38
2019-03-22T03:37:29.958Z,88.05
2019-03-22T03:40:00.751Z,87.14
2019-03-22T03:42:31.892Z,87.92
2019-03-22T03:45:02.810Z,88.64
2019-03-22T03:47:33.661Z,89.04
2019-03-22T03:50:06.453Z,89.25
2019-03-22T03:52:39.465Z,88.03
2019-03-22T03:55:09.821Z,87.46
2019-03-22T03:57:40.766Z,87.22
2019-03-22T04:00:12.054Z,87.21
2019-03-22T04:02:42.841Z,87.14
2019-03-22T04:05:14.754Z,87.11
2019-03-22T04:07:45.664Z,89.08
2019-03-22T04:10:16.508Z,89.36
2019-03-22T04:12:47.292Z,88.90
2019-03-22T04:15:18.484Z,88.06
2019-03-22T04:17:49.384Z,87.70
2019-03-22T04:20:20.167Z,87.82
2019-03-22T04:22:51.052Z,88.63
2019-03-22T04:25:22.055Z,89.39
2019-03-22T04:27:52.812Z,89.25
2019-03-22T04:30:23.697Z,89.14
2019-03-22T04:32:54.461Z,87.89
2019-03-22T04:35:25.309Z,87.59
2019-03-22T04:37:56.064Z,88.14
2019-03-22T04:40:28.074Z,87.50
2019-03-22T04:42:58.882Z,87.13
2019-03-22T04:45:33.749Z,87.28
2019-03-22T04:48:19.348Z,86.92
2019-03-22T04:50:52.723Z,87.59
2019-03-22T04:53:26.444Z,87.75
2019-03-22T04:56:02.279Z,87.63
2019-03-22T04:58:34.431Z,87.61
2019-03-22T05:01:05.343Z,87.15
2019-03-22T05:03:37.127Z,86.95
2019-03-22T05:06:10.011Z,86.80
2019-03-22T05:08:43.178Z,86.81
2019-03-22T05:11:16.514Z,86.58
2019-03-22T05:13:50.390Z,86.58
2019-03-22T05:16:23.691Z,86.32
2019-03-22T05:18:56.502Z,85.22
2019-03-22T05:21:30.755Z,84.29
2019-03-22T05:24:04.605Z,84.99
2019-03-22T05:26:38.095Z,84.54
2019-03-22T05:29:11.914Z,82.91
2019-03-22T05:32:00.084Z,81.37
2019-03-22T05:34:30.808Z,80.32
2019-03-22T05:37:01.631Z,83.02
2019-03-22T05:39:33.419Z,84.30
2019-03-22T05:42:04.436Z,84.83
2019-03-22T05:44:35.371Z,85.07
2019-03-22T05:47:07.417Z,85.92
2019-03-22T05:49:38.218Z,84.81
2019-03-22T05:52:09.135Z,84.79
2019-03-22T05:54:39.943Z,84.46
2019-03-22T05:57:13.641Z,83.30
2019-03-22T05:59:43.472Z,75.76
2019-03-22T06:02:14.280Z,71.01
2019-03-22T06:04:45.095Z,69.44
2019-03-22T06:07:15.938Z,68.82
2019-03-22T06:09:46.853Z,68.04
2019-03-22T06:12:18.746Z,67.84
2019-03-22T06:14:49.728Z,67.25
2019-03-22T06:17:21.040Z,66.00
2019-03-22T06:19:51.821Z,67.36
2019-03-22T06:22:22.724Z,73.29
2019-03-22T06:24:53.490Z,71.30
2019-03-22T06:27:24.286Z,65.48
2019-03-22T06:29:55.059Z,63.46
2019-03-22T06:32:25.943Z,66.39
2019-03-22T06:34:56.733Z,64.17
2019-03-22T06:37:28.544Z,62.79
2019-03-22T06:39:59.289Z,60.43
2019-03-22T06:42:30.140Z,63.69
2019-03-22T06:45:00.981Z,63.72
2019-03-22T06:47:31.753Z,58.27
2019-03-22T06:50:02.512Z,60.26
2019-03-22T06:52:33.397Z,61.11
2019-03-22T06:55:04.156Z,63.31
2019-03-22T06:57:34.976Z,63.37
2019-03-22T07:00:07.679Z,60.71
2019-03-22T07:02:38.554Z,64.16
2019-03-22T07:05:09.509Z,69.01
2019-03-22T07:07:40.465Z,66.01
2019-03-22T07:10:12.337Z,64.13
2019-03-22T07:12:43.153Z,62.96
2019-03-22T07:15:15.030Z,58.80
2019-03-22T07:17:45.913Z,62.77
2019-03-22T07:20:16.758Z,65.95
2019-03-22T07:22:47.622Z,66.50
2019-03-22T07:25:18.457Z,65.54
2019-03-22T07:27:49.376Z,65.82
2019-03-22T07:30:20.253Z,65.27
2019-03-22T07:32:51.284Z,64.62
2019-03-22T07:35:22.063Z,66.13
2019-03-22T07:37:52.892Z,65.52
2019-03-22T07:40:23.671Z,66.23
2019-03-22T07:42:54.510Z,65.39
2019-03-22T07:45:25.271Z,66.30
2019-03-22T07:47:56.148Z,63.64
2019-03-22T07:50:26.890Z,59.27
2019-03-22T07:52:57.732Z,58.19
2019-03-22T07:55:28.522Z,62.44
2019-03-22T07:57:59.297Z,59.48
2019-03-22T08:00:31.295Z,61.16
2019-03-22T08:03:02.611Z,56.71
2019-03-22T08:05:33.402Z,56.61
2019-03-22T08:08:04.382Z,54.50
2019-03-22T08:10:36.621Z,53.15
2019-03-22T08:13:07.459Z,54.52
2019-03-22T08:15:38.296Z,55.14
2019-03-22T08:18:09.283Z,54.83
2019-03-22T08:20:41.446Z,53.19
2019-03-22T08:23:25.152Z,53.90
2019-03-22T08:25:57.009Z,50.07
2019-03-22T08:28:27.761Z,53.33
2019-03-22T08:30:58.591Z,53.07
2019-03-22T08:33:29.633Z,52.46
2019-03-22T08:36:00.571Z,54.45
2019-03-22T08:38:31.390Z,53.87
2019-03-22T08:41:02.188Z,52.54
2019-03-22T08:43:33.053Z,52.30
2019-03-22T08:46:03.810Z,53.49
2019-03-22T08:48:34.764Z,52.99
2019-03-22T08:51:05.661Z,53.00
2019-03-22T08:53:36.522Z,50.26
2019-03-22T08:56:08.596Z,51.17
2019-03-22T08:58:39.562Z,52.00
2019-03-22T09:01:10.523Z,48.03
2019-03-22T09:03:41.565Z,47.46
2019-03-22T09:06:14.817Z,47.20
2019-03-22T09:08:47.888Z,48.26
2019-03-22T09:11:18.346Z,47.59
2019-03-22T09:13:49.426Z,43.77
2019-03-22T09:16:20.171Z,45.94
2019-03-22T09:18:51.093Z,47.83
2019-03-22T09:21:22.036Z,48.52
2019-03-22T09:23:53.915Z,49.41
2019-03-22T09:26:24.763Z,51.06
2019-03-22T09:28:55.675Z,44.90
2019-03-22T09:31:26.441Z,50.13
2019-03-22T09:33:58.839Z,48.02
2019-03-22T09:36:30.500Z,46.83
2019-03-22T09:39:03.115Z,43.72
2019-03-22T09:41:36.111Z,44.53
2019-03-22T09:44:07.641Z,43.24
2019-03-22T09:46:38.447Z,44.17
2019-03-22T09:49:09.262Z,47.93
2019-03-22T09:51:40.095Z,46.83
2019-03-22T09:54:11.324Z,48.90
2019-03-22T09:56:47.222Z,48.67
2019-03-22T09:59:16.358Z,47.12
2019-03-22T10:01:47.568Z,47.63
2019-03-22T10:04:20.183Z,49.48
2019-03-22T10:06:51.081Z,46.15
2019-03-22T10:09:22.010Z,44.76
2019-03-22T10:11:55.753Z,43.15
2019-03-22T10:14:26.613Z,40.56
2019-03-22T10:16:57.493Z,43.30
2019-03-22T10:19:29.550Z,44.21
2019-03-22T10:22:00.466Z,47.60
2019-03-22T10:24:31.248Z,48.70
2019-03-22T10:27:05.197Z,50.07
2019-03-22T10:29:36.381Z,46.86
2019-03-22T10:32:07.212Z,47.55
2019-03-22T10:34:39.744Z,48.56
2019-03-22T10:37:10.781Z,49.76
2019-03-22T10:39:42.771Z,50.30
2019-03-22T10:42:13.678Z,49.56
2019-03-22T10:44:49.801Z,50.43
2019-03-22T10:47:21.354Z,50.01
2019-03-22T10:49:52.462Z,51.72
2019-03-22T10:52:23.298Z,53.18
2019-03-22T10:54:54.245Z,52.01
2019-03-22T10:57:25.017Z,52.09
2019-03-22T10:59:57.497Z,51.09
2019-03-22T11:02:28.826Z,49.33
2019-03-22T11:04:59.879Z,49.18
2019-03-22T11:07:32.031Z,52.46
2019-03-22T11:10:02.991Z,50.92
2019-03-22T11:12:33.768Z,49.03
2019-03-22T11:15:05.002Z,49.00
2019-03-22T11:17:35.923Z,50.22
2019-03-22T11:20:09.375Z,45.78
2019-03-22T11:22:40.354Z,47.69
2019-03-22T11:25:11.459Z,50.56
2019-03-22T11:27:42.362Z,50.89
2019-03-22T11:30:15.399Z,47.54
2019-03-22T11:32:46.229Z,49.87
2019-03-22T11:35:17.114Z,48.84
2019-03-22T11:37:47.937Z,48.12
2019-03-22T11:40:20.868Z,47.18
2019-03-22T11:42:53.861Z,48.93
2019-03-22T11:45:25.519Z,48.31
2019-03-22T11:47:56.287Z,49.86
2019-03-22T11:50:29.029Z,48.50
2019-03-22T11:53:01.054Z,45.86
2019-03-22T11:55:31.898Z,46.58
2019-03-22T11:58:04.509Z,42.73
2019-03-22T12:00:35.390Z,42.85
2019-03-22T12:03:07.031Z,43.09
2019-03-22T12:05:40.648Z,44.00
2019-03-22T12:08:13.941Z,44.34
2019-03-22T12:10:46.255Z,45.49
2019-03-22T12:13:17.038Z,43.39
2019-03-22T12:15:47.948Z,45.04
2019-03-22T12:18:19.754Z,43.44
2019-03-22T12:20:51.267Z,42.66
2019-03-22T12:23:22.147Z,42.12
2019-03-22T12:25:55.450Z,44.36
2019-03-22T12:28:26.265Z,43.79
2019-03-22T12:30:59.755Z,44.11
2019-03-22T12:33:30.530Z,43.41
2019-03-22T12:36:02.539Z,43.98
2019-03-22T12:38:33.402Z,42.29
2019-03-22T12:41:04.269Z,43.72
2019-03-22T12:43:36.041Z,44.02
2019-03-22T12:46:07.029Z,43.20
2019-03-22T12:48:37.836Z,44.36
2019-03-22T12:51:08.986Z,44.33
2019-03-22T12:53:39.812Z,45.21
2019-03-22T12:56:10.714Z,44.68
2019-03-22T12:58:41.547Z,42.36
2019-03-22T13:01:12.481Z,43.05
2019-03-22T13:03:43.343Z,46.70
2019-03-22T13:06:21.764Z,45.84
2019-03-22T13:08:53.000Z,46.88
2019-03-22T13:11:23.894Z,47.46
2019-03-22T13:13:55.834Z,46.59
2019-03-22T13:16:28.059Z,46.64
2019-03-22T13:19:00.035Z,46.43
2019-03-22T13:21:30.994Z,45.61
2019-03-22T13:24:02.748Z,45.32
2019-03-22T13:26:34.924Z,47.21
2019-03-22T13:29:05.744Z,47.21
2019-03-22T13:31:36.802Z,46.99
2019-03-22T13:34:11.656Z,47.03
2019-03-22T13:36:42.909Z,47.69
2019-03-22T13:39:14.140Z,48.17
2019-03-22T13:41:44.933Z,46.61
2019-03-22T13:44:15.763Z,46.11
2019-03-22T13:46:49.999Z,45.37
2019-03-22T13:49:21.259Z,46.04
2019-03-22T13:51:53.320Z,46.51
2019-03-22T13:54:24.239Z,46.26
2019-03-22T13:56:55.388Z,45.68
2019-03-22T13:59:26.225Z,46.02
2019-03-22T14:01:57.431Z,45.68
2019-03-22T14:04:29.766Z,46.38
2019-03-22T14:07:00.606Z,46.05
2019-03-22T14:09:32.387Z,45.33
2019-03-22T14:12:03.185Z,44.85
2019-03-22T14:14:36.107Z,43.71
2019-03-22T14:17:06.974Z,46.32
2019-03-22T14:19:39.765Z,46.33
2019-03-22T14:22:11.457Z,45.83
2019-03-22T14:24:42.248Z,48.01
2019-03-22T14:27:13.103Z,49.80
2019-03-22T14:29:43.937Z,49.90
2019-03-22T14:32:14.776Z,48.24
2019-03-22T14:34:45.530Z,49.00
2019-03-22T14:37:16.599Z,50.60
2019-03-22T14:39:47.378Z,51.86
2019-03-22T14:42:18.221Z,51.04
2019-03-22T14:44:48.982Z,51.33
2019-03-22T14:47:19.841Z,50.54
2019-03-22T14:49:50.739Z,50.33
2019-03-22T14:52:21.567Z,50.81
2019-03-22T14:54:53.473Z,51.59
2019-03-22T14:57:24.585Z,52.14
2019-03-22T14:59:59.162Z,50.61
2019-03-22T15:02:30.135Z,51.58
2019-03-22T15:05:01.128Z,52.10
2019-03-22T15:07:32.083Z,53.54
2019-03-22T15:10:05.128Z,54.41
2019-03-22T15:12:36.086Z,53.69
2019-03-22T15:15:26.788Z,54.59
2019-03-22T15:18:25.877Z,53.50
2019-03-22T15:21:22.760Z,54.29
2019-03-22T15:24:12.647Z,54.06
2019-03-22T15:27:00.335Z,53.26
2019-03-22T15:30:10.873Z,53.89
2019-03-22T15:32:59.698Z,54.28
2019-03-22T15:35:52.270Z,54.55
2019-03-22T15:38:43.339Z,53.80
2019-03-22T15:41:14.879Z,52.82
2019-03-22T15:43:46.764Z,52.75
2019-03-22T15:46:17.675Z,53.84
2019-03-22T15:48:48.456Z,54.87
2019-03-22T15:51:19.256Z,53.97
2019-03-22T15:53:50.054Z,54.30
2019-03-22T15:56:20.953Z,54.38
2019-03-22T15:58:51.688Z,55.14
2019-03-22T16:01:22.527Z,55.35
2019-03-22T16:03:54.328Z,55.74
2019-03-22T16:06:25.680Z,56.71
2019-03-22T16:08:56.538Z,57.27
2019-03-22T16:11:27.551Z,57.63
2019-03-22T16:13:59.845Z,57.83
2019-03-22T16:16:30.702Z,57.93
2019-03-22T16:19:01.449Z,58.20
2019-03-22T16:21:34.589Z,58.78
2019-03-22T16:24:05.526Z,58.65
2019-03-22T16:26:36.512Z,58.46
2019-03-22T16:29:07.466Z,58.57
2019-03-22T16:31:38.279Z,59.03
2019-03-22T16:34:09.176Z,59.16
2019-03-22T16:36:39.942Z,59.26
2019-03-22T16:39:10.750Z,59.41
2019-03-22T16:41:41.782Z,59.73
2019-03-22T16:44:12.699Z,60.63
2019-03-22T16:46:43.500Z,60.73
2019-03-22T16:49:14.309Z,60.29
2019-03-22T16:51:45.167Z,60.36
2019-03-22T16:54:15.967Z,59.80
2019-03-22T16:56:47.039Z,59.72
2019-03-22T16:59:17.799Z,59.36
2019-03-22T17:01:54.124Z,59.54
2019-03-22T17:07:33.305Z,60.29
2019-03-22T17:10:09.736Z,60.44
2019-03-22T17:13:12.973Z,60.64
2019-03-22T17:15:49.015Z,61.20
2019-03-22T17:18:20.465Z,62.10
2019-03-22T17:20:51.347Z,62.08
2019-03-22T17:23:22.258Z,62.74
2019-03-22T17:25:53.095Z,62.68
2019-03-22T17:28:24.032Z,62.83
2019-03-22T17:30:54.832Z,63.10
2019-03-22T17:33:43.275Z,63.18
2019-03-22T17:36:36.398Z,63.41
2019-03-22T17:39:17.364Z,64.04
2019-03-22T17:41:57.124Z,64.31
2019-03-22T17:44:27.995Z,64.58
2019-03-22T17:46:58.792Z,65.02
2019-03-22T17:49:30.741Z,65.34
2019-03-22T17:52:01.570Z,65.83
2019-03-22T17:54:32.444Z,65.70
2019-03-22T17:57:18.181Z,66.24
2019-03-22T17:59:55.829Z,66.43
2019-03-22T18:03:00.063Z,67.09
2019-03-22T18:05:35.481Z,67.30
2019-03-22T18:08:21.761Z,68.06
2019-03-22T18:10:53.774Z,67.71
2019-03-22T18:13:24.590Z,68.17
2019-03-22T18:15:55.561Z,68.38
2019-03-22T18:18:26.475Z,68.60
2019-03-22T18:21:16.235Z,69.25
2019-03-22T18:23:57.239Z,69.14
2019-03-22T18:29:13.909Z,69.80
2019-03-22T18:31:51.339Z,70.18
2019-03-22T18:34:35.048Z,70.14
2019-03-22T18:37:18.609Z,69.80
2019-03-22T18:39:49.424Z,70.24
2019-03-22T18:42:20.166Z,70.25
2019-03-22T18:44:50.975Z,70.18
2019-03-22T18:47:21.889Z,71.03
2019-03-22T18:49:52.644Z,71.46
2019-03-22T18:52:25.796Z,70.86
2019-03-22T18:55:18.115Z,71.47
2019-03-22T18:57:54.260Z,71.86
2019-03-22T19:00:30.351Z,72.09
2019-03-22T19:03:04.298Z,71.65
2019-03-22T19:05:38.852Z,72.17
2019-03-22T19:08:14.083Z,71.67
2019-03-22T19:10:45.120Z,71.55
2019-03-22T19:13:30.425Z,71.65
2019-03-22T19:15:59.559Z,71.78
2019-03-22T19:18:32.856Z,71.93
2019-03-22T19:21:24.834Z,72.30
2019-03-22T19:24:03.500Z,72.38
2019-03-22T19:26:42.365Z,72.50
2019-03-22T19:29:30.436Z,72.42
2019-03-22T19:32:01.405Z,72.75
2019-03-22T19:34:54.338Z,73.08
2019-03-22T19:37:24.628Z,73.28
2019-03-22T19:39:55.394Z,73.13
2019-03-22T19:42:26.216Z,73.64
2019-03-22T19:44:57.028Z,74.17
2019-03-22T19:47:27.863Z,75.02
2019-03-22T19:50:00.424Z,74.40
2019-03-22T19:52:36.275Z,74.09
2019-03-22T19:55:07.973Z,73.78
2019-03-22T19:57:40.139Z,74.11
2019-03-22T20:00:11.874Z,74.21
2019-03-22T20:02:43.262Z,74.44
2019-03-22T20:05:18.229Z,74.56
2019-03-22T20:07:51.071Z,74.22
2019-03-22T20:10:49.398Z,74.29
2019-03-22T20:13:22.180Z,75.49
2019-03-22T20:16:05.319Z,76.02
2019-03-22T20:18:36.729Z,76.15
2019-03-22T20:21:09.786Z,76.50
2019-03-22T20:23:40.905Z,77.71
2019-03-22T20:26:25.531Z,78.25
2019-03-22T20:29:21.994Z,78.66
2019-03-22T20:31:49.375Z,79.10
2019-03-22T20:34:20.540Z,79.31
2019-03-22T20:36:51.374Z,79.51
2019-03-22T20:39:22.396Z,79.70
2019-03-22T20:41:54.643Z,79.81
2019-03-22T20:44:33.548Z,79.52
2019-03-22T20:46:57.960Z,79.43
2019-03-22T20:49:28.814Z,79.50
2019-03-22T20:51:59.621Z,79.81
2019-03-22T20:54:30.452Z,79.56
2019-03-22T20:57:01.476Z,79.60
2019-03-22T20:59:32.622Z,79.74
2019-03-22T21:02:03.499Z,79.33
2019-03-22T21:04:34.386Z,78.74
2019-03-22T21:07:05.359Z,78.74
2019-03-22T21:09:36.360Z,79.24
2019-03-22T21:12:09.588Z,79.83
2019-03-22T21:14:40.383Z,80.28
2019-03-22T21:17:11.183Z,80.04
2019-03-22T21:19:42.028Z,80.42
2019-03-22T21:22:12.860Z,80.54
2019-03-22T21:24:43.640Z,80.60
2019-03-22T21:27:15.752Z,80.20
2019-03-22T21:29:47.175Z,80.89
2019-03-22T21:32:19.228Z,80.50
2019-03-22T21:34:50.048Z,79.90
2019-03-22T21:37:22.165Z,79.36
2019-03-22T21:39:53.049Z,78.07
2019-03-22T21:42:24.960Z,79.35
2019-03-22T21:44:55.754Z,80.49
2019-03-22T21:47:27.151Z,81.36
2019-03-22T21:50:00.708Z,81.60
2019-03-22T21:52:31.612Z,81.70
2019-03-22T21:55:02.399Z,82.23
2019-03-22T21:57:33.225Z,81.97
2019-03-22T22:00:04.198Z,81.58
2019-03-22T22:02:36.561Z,81.53
2019-03-22T22:05:09.219Z,81.80
2019-03-22T22:07:40.446Z,82.66
2019-03-22T22:10:11.822Z,83.19
2019-03-22T22:12:43.039Z,84.18
2019-03-22T22:15:13.830Z,84.67
2019-03-22T22:17:47.214Z,84.62
2019-03-22T22:20:28.362Z,84.01
2019-03-22T22:22:51.992Z,82.78
2019-03-22T22:25:22.749Z,82.55
2019-03-22T22:27:53.548Z,81.84
2019-03-22T22:30:24.344Z,81.23
2019-03-22T22:32:56.243Z,81.35
2019-03-22T22:35:27.994Z,80.60
2019-03-22T22:37:58.817Z,80.92
2019-03-22T22:40:29.641Z,81.11
2019-03-22T22:43:00.420Z,80.81
2019-03-22T22:45:31.698Z,81.18
2019-03-22T22:48:02.558Z,81.32
2019-03-22T22:50:33.532Z,81.84
2019-03-22T22:53:04.302Z,83.48
2019-03-22T22:55:35.267Z,84.87
2019-03-22T22:58:06.392Z,84.58
2019-03-22T23:00:37.426Z,84.97
2019-03-22T23:03:08.348Z,83.28
2019-03-22T23:05:39.198Z,81.15
2019-03-22T23:08:12.484Z,80.88
2019-03-22T23:10:43.270Z,81.44
2019-03-22T23:13:14.309Z,81.06
2019-03-22T23:15:45.091Z,81.18
2019-03-22T23:18:15.854Z,80.92
2019-03-22T23:20:46.702Z,80.02
2019-03-22T23:23:17.720Z,80.82
2019-03-22T23:25:48.511Z,81.26
2019-03-22T23:28:19.273Z,80.74
2019-03-22T23:30:50.221Z,80.42
2019-03-22T23:33:21.039Z,79.79
2019-03-22T23:35:51.832Z,79.31
2019-03-22T23:38:22.822Z,79.46
2019-03-22T23:40:53.644Z,81.11
2019-03-22T23:43:24.476Z,82.12
2019-03-22T23:45:55.285Z,82.07
2019-03-22T23:48:26.085Z,82.30
2019-03-22T23:50:56.913Z,83.69
2019-03-22T23:53:28.120Z,84.83
2019-03-22T23:56:00.348Z,85.10
2019-03-22T23:58:32.252Z,86.46
